sensor_id;sensor_type;location;lat;lon;timestamp;P1;durP1;ratioP1;P2;durP2;ratioP2
31746;SDS011;18319;48.974;8.462;2022-10-16T00:00:36;1.50;;;0.68;;
31746;SDS011;18319;48.974;8.462;2022-10-16T00:03:05;1.52;;;0.40;;
31746;SDS011;18319;48.974;8.462;2022-10-16T00:05:37;0.30;;;0.30;;
31746;SDS011;18319;48.974;8.462;2022-10-16T00:08:05;0.68;;;0.68;;
31746;SDS011;18319;48.974;8.462;2022-10-16T00:10:33;0.85;;;0.40;;
31746;SDS011;18319;48.974;8.462;2022-10-16T00:13:01;2.55;;;0.63;;
31746;SDS011;18319;48.974;8.462;2022-10-16T00:15:29;0.40;;;0.40;;
31746;SDS011;18319;48.974;8.462;2022-10-16T00:17:56;2.25;;;0.68;;
31746;SDS011;18319;48.974;8.462;2022-10-16T00:20:22;0.68;;;0.47;;
31746;SDS011;18319;48.974;8.462;2022-10-16T00:22:49;2.60;;;0.57;;
31746;SDS011;18319;48.974;8.462;2022-10-16T00:25:16;0.98;;;0.43;;
31746;SDS011;18319;48.974;8.462;2022-10-16T00:27:43;2.38;;;0.30;;
31746;SDS011;18319;48.974;8.462;2022-10-16T00:30:11;4.65;;;0.50;;
31746;SDS011;18319;48.974;8.462;2022-10-16T00:32:38;0.90;;;0.55;;
31746;SDS011;18319;48.974;8.462;2022-10-16T00:35:05;1.85;;;0.60;;
31746;SDS011;18319;48.974;8.462;2022-10-16T00:37:32;1.40;;;0.70;;
31746;SDS011;18319;48.974;8.462;2022-10-16T00:42:26;0.73;;;0.60;;
31746;SDS011;18319;48.974;8.462;2022-10-16T00:44:54;1.15;;;0.50;;
31746;SDS011;18319;48.974;8.462;2022-10-16T00:47:24;1.08;;;0.35;;
31746;SDS011;18319;48.974;8.462;2022-10-16T00:49:55;0.30;;;0.30;;
31746;SDS011;18319;48.974;8.462;2022-10-16T00:52:26;1.10;;;0.35;;
31746;SDS011;18319;48.974;8.462;2022-10-16T00:54:53;0.75;;;0.55;;
31746;SDS011;18319;48.974;8.462;2022-10-16T00:57:21;0.73;;;0.40;;
31746;SDS011;18319;48.974;8.462;2022-10-16T00:59:48;2.28;;;0.40;;
31746;SDS011;18319;48.974;8.462;2022-10-16T01:02:15;5.00;;;0.50;;
31746;SDS011;18319;48.974;8.462;2022-10-16T01:04:44;1.25;;;0.80;;
31746;SDS011;18319;48.974;8.462;2022-10-16T01:07:16;2.05;;;0.28;;
31746;SDS011;18319;48.974;8.462;2022-10-16T01:09:55;0.47;;;0.47;;
31746;SDS011;18319;48.974;8.462;2022-10-16T01:12:32;2.03;;;0.50;;
31746;SDS011;18319;48.974;8.462;2022-10-16T01:15:06;4.57;;;0.50;;
31746;SDS011;18319;48.974;8.462;2022-10-16T01:17:38;2.95;;;0.50;;
31746;SDS011;18319;48.974;8.462;2022-10-16T01:20:14;1.55;;;0.45;;
31746;SDS011;18319;48.974;8.462;2022-10-16T01:22:50;4.05;;;1.25;;
31746;SDS011;18319;48.974;8.462;2022-10-16T01:25:39;3.63;;;0.60;;
31746;SDS011;18319;48.974;8.462;2022-10-16T01:28:21;0.35;;;0.32;;
31746;SDS011;18319;48.974;8.462;2022-10-16T01:30:52;1.55;;;0.40;;
31746;SDS011;18319;48.974;8.462;2022-10-16T01:33:26;0.60;;;0.40;;
31746;SDS011;18319;48.974;8.462;2022-10-16T01:35:59;0.47;;;0.32;;
31746;SDS011;18319;48.974;8.462;2022-10-16T01:38:33;1.48;;;0.50;;
31746;SDS011;18319;48.974;8.462;2022-10-16T01:41:02;2.72;;;0.40;;
31746;SDS011;18319;48.974;8.462;2022-10-16T01:43:35;1.63;;;0.50;;
31746;SDS011;18319;48.974;8.462;2022-10-16T01:46:04;0.30;;;0.30;;
31746;SDS011;18319;48.974;8.462;2022-10-16T01:48:32;0.57;;;0.50;;
31746;SDS011;18319;48.974;8.462;2022-10-16T01:51:03;1.15;;;0.50;;
31746;SDS011;18319;48.974;8.462;2022-10-16T01:53:32;1.42;;;0.57;;
31746;SDS011;18319;48.974;8.462;2022-10-16T01:56:00;1.70;;;0.40;;
31746;SDS011;18319;48.974;8.462;2022-10-16T01:58:30;1.67;;;1.58;;
31746;SDS011;18319;48.974;8.462;2022-10-16T02:01:06;4.30;;;0.95;;
31746;SDS011;18319;48.974;8.462;2022-10-16T02:03:34;0.52;;;0.50;;
31746;SDS011;18319;48.974;8.462;2022-10-16T02:06:03;0.95;;;0.50;;
31746;SDS011;18319;48.974;8.462;2022-10-16T02:08:30;1.50;;;0.60;;
31746;SDS011;18319;48.974;8.462;2022-10-16T02:10:57;2.17;;;0.30;;
31746;SDS011;18319;48.974;8.462;2022-10-16T02:13:27;1.85;;;0.30;;
31746;SDS011;18319;48.974;8.462;2022-10-16T02:15:58;0.50;;;0.30;;
31746;SDS011;18319;48.974;8.462;2022-10-16T02:18:25;1.95;;;0.40;;
31746;SDS011;18319;48.974;8.462;2022-10-16T02:20:55;0.32;;;0.32;;
31746;SDS011;18319;48.974;8.462;2022-10-16T02:23:27;0.60;;;0.60;;
31746;SDS011;18319;48.974;8.462;2022-10-16T02:26:01;2.15;;;0.60;;
31746;SDS011;18319;48.974;8.462;2022-10-16T02:28:31;3.38;;;0.45;;
31746;SDS011;18319;48.974;8.462;2022-10-16T02:31:06;0.75;;;0.43;;
31746;SDS011;18319;48.974;8.462;2022-10-16T02:33:37;3.47;;;0.50;;
31746;SDS011;18319;48.974;8.462;2022-10-16T02:36:06;0.50;;;0.30;;
31746;SDS011;18319;48.974;8.462;2022-10-16T02:38:34;1.17;;;0.40;;
31746;SDS011;18319;48.974;8.462;2022-10-16T02:41:01;0.47;;;0.40;;
31746;SDS011;18319;48.974;8.462;2022-10-16T02:43:30;1.30;;;0.40;;
31746;SDS011;18319;48.974;8.462;2022-10-16T02:45:58;2.38;;;0.55;;
31746;SDS011;18319;48.974;8.462;2022-10-16T02:48:26;2.50;;;0.50;;
31746;SDS011;18319;48.974;8.462;2022-10-16T02:50:53;0.85;;;0.60;;
31746;SDS011;18319;48.974;8.462;2022-10-16T02:53:20;0.43;;;0.43;;
31746;SDS011;18319;48.974;8.462;2022-10-16T02:55:46;0.32;;;0.32;;
31746;SDS011;18319;48.974;8.462;2022-10-16T02:58:13;4.65;;;0.60;;
31746;SDS011;18319;48.974;8.462;2022-10-16T03:00:40;2.00;;;0.70;;
31746;SDS011;18319;48.974;8.462;2022-10-16T03:03:07;1.08;;;0.73;;
31746;SDS011;18319;48.974;8.462;2022-10-16T03:05:35;0.60;;;0.38;;
31746;SDS011;18319;48.974;8.462;2022-10-16T03:08:02;2.38;;;0.50;;
31746;SDS011;18319;48.974;8.462;2022-10-16T03:10:29;0.32;;;0.32;;
31746;SDS011;18319;48.974;8.462;2022-10-16T03:12:55;0.65;;;0.50;;
31746;SDS011;18319;48.974;8.462;2022-10-16T03:15:22;1.55;;;0.50;;
31746;SDS011;18319;48.974;8.462;2022-10-16T03:17:49;0.40;;;0.40;;
31746;SDS011;18319;48.974;8.462;2022-10-16T03:20:16;1.50;;;0.47;;
31746;SDS011;18319;48.974;8.462;2022-10-16T03:22:44;1.98;;;0.60;;
31746;SDS011;18319;48.974;8.462;2022-10-16T03:25:10;1.20;;;0.50;;
31746;SDS011;18319;48.974;8.462;2022-10-16T03:27:37;0.30;;;0.30;;
31746;SDS011;18319;48.974;8.462;2022-10-16T03:30:04;1.98;;;0.70;;
31746;SDS011;18319;48.974;8.462;2022-10-16T03:32:32;1.08;;;0.73;;
31746;SDS011;18319;48.974;8.462;2022-10-16T03:34:58;1.75;;;0.68;;
31746;SDS011;18319;48.974;8.462;2022-10-16T03:37:25;2.15;;;0.50;;
31746;SDS011;18319;48.974;8.462;2022-10-16T03:39:53;0.82;;;0.50;;
31746;SDS011;18319;48.974;8.462;2022-10-16T03:42:20;0.93;;;0.57;;
31746;SDS011;18319;48.974;8.462;2022-10-16T03:44:47;1.40;;;0.50;;
31746;SDS011;18319;48.974;8.462;2022-10-16T03:47:13;1.52;;;0.60;;
31746;SDS011;18319;48.974;8.462;2022-10-16T03:49:40;2.95;;;0.60;;
31746;SDS011;18319;48.974;8.462;2022-10-16T03:52:07;0.75;;;0.75;;
31746;SDS011;18319;48.974;8.462;2022-10-16T03:54:34;0.50;;;0.50;;
31746;SDS011;18319;48.974;8.462;2022-10-16T03:57:02;3.78;;;0.70;;
31746;SDS011;18319;48.974;8.462;2022-10-16T03:59:29;0.65;;;0.40;;
31746;SDS011;18319;48.974;8.462;2022-10-16T04:01:55;0.93;;;0.60;;
31746;SDS011;18319;48.974;8.462;2022-10-16T04:04:22;4.05;;;0.52;;
31746;SDS011;18319;48.974;8.462;2022-10-16T04:06:49;0.88;;;0.50;;
31746;SDS011;18319;48.974;8.462;2022-10-16T04:09:16;3.58;;;0.47;;
31746;SDS011;18319;48.974;8.462;2022-10-16T04:11:43;4.70;;;0.88;;
31746;SDS011;18319;48.974;8.462;2022-10-16T04:14:11;2.08;;;0.60;;
31746;SDS011;18319;48.974;8.462;2022-10-16T04:16:38;2.28;;;0.40;;
31746;SDS011;18319;48.974;8.462;2022-10-16T04:19:05;6.63;;;1.35;;
31746;SDS011;18319;48.974;8.462;2022-10-16T04:21:31;0.65;;;0.50;;
31746;SDS011;18319;48.974;8.462;2022-10-16T04:23:58;0.80;;;0.80;;
31746;SDS011;18319;48.974;8.462;2022-10-16T04:26:25;0.88;;;0.80;;
31746;SDS011;18319;48.974;8.462;2022-10-16T04:28:51;3.63;;;0.85;;
31746;SDS011;18319;48.974;8.462;2022-10-16T04:31:20;1.70;;;0.50;;
31746;SDS011;18319;48.974;8.462;2022-10-16T04:33:47;3.53;;;0.93;;
31746;SDS011;18319;48.974;8.462;2022-10-16T04:36:13;0.57;;;0.57;;
31746;SDS011;18319;48.974;8.462;2022-10-16T04:38:40;0.40;;;0.40;;
31746;SDS011;18319;48.974;8.462;2022-10-16T04:41:07;1.50;;;0.60;;
31746;SDS011;18319;48.974;8.462;2022-10-16T04:43:34;4.05;;;0.50;;
31746;SDS011;18319;48.974;8.462;2022-10-16T04:46:01;0.70;;;0.50;;
31746;SDS011;18319;48.974;8.462;2022-10-16T04:48:30;1.30;;;0.43;;
31746;SDS011;18319;48.974;8.462;2022-10-16T04:50:58;2.90;;;0.63;;
31746;SDS011;18319;48.974;8.462;2022-10-16T04:53:25;1.73;;;0.43;;
31746;SDS011;18319;48.974;8.462;2022-10-16T04:55:52;0.40;;;0.30;;
31746;SDS011;18319;48.974;8.462;2022-10-16T04:58:18;0.57;;;0.43;;
31746;SDS011;18319;48.974;8.462;2022-10-16T05:00:45;2.65;;;0.50;;
31746;SDS011;18319;48.974;8.462;2022-10-16T05:03:12;3.83;;;0.82;;
31746;SDS011;18319;48.974;8.462;2022-10-16T05:05:43;3.15;;;0.77;;
31746;SDS011;18319;48.974;8.462;2022-10-16T05:08:11;2.13;;;0.52;;
31746;SDS011;18319;48.974;8.462;2022-10-16T05:10:38;1.52;;;0.90;;
31746;SDS011;18319;48.974;8.462;2022-10-16T05:13:06;1.20;;;0.70;;
31746;SDS011;18319;48.974;8.462;2022-10-16T05:15:33;0.50;;;0.50;;
31746;SDS011;18319;48.974;8.462;2022-10-16T05:18:00;5.18;;;0.50;;
31746;SDS011;18319;48.974;8.462;2022-10-16T05:20:27;1.20;;;0.52;;
31746;SDS011;18319;48.974;8.462;2022-10-16T05:22:55;0.63;;;0.40;;
31746;SDS011;18319;48.974;8.462;2022-10-16T05:25:21;1.58;;;0.60;;
31746;SDS011;18319;48.974;8.462;2022-10-16T05:27:48;0.60;;;0.60;;
31746;SDS011;18319;48.974;8.462;2022-10-16T05:30:15;0.60;;;0.52;;
31746;SDS011;18319;48.974;8.462;2022-10-16T05:32:45;3.00;;;0.70;;
31746;SDS011;18319;48.974;8.462;2022-10-16T05:35:13;0.70;;;0.70;;
31746;SDS011;18319;48.974;8.462;2022-10-16T05:37:40;0.80;;;0.80;;
31746;SDS011;18319;48.974;8.462;2022-10-16T05:40:09;2.22;;;0.73;;
31746;SDS011;18319;48.974;8.462;2022-10-16T05:42:37;5.38;;;0.50;;
31746;SDS011;18319;48.974;8.462;2022-10-16T05:45:05;1.65;;;0.60;;
31746;SDS011;18319;48.974;8.462;2022-10-16T05:47:32;2.72;;;0.70;;
31746;SDS011;18319;48.974;8.462;2022-10-16T05:49:59;2.15;;;0.60;;
31746;SDS011;18319;48.974;8.462;2022-10-16T05:52:26;0.50;;;0.50;;
31746;SDS011;18319;48.974;8.462;2022-10-16T05:54:53;0.90;;;0.60;;
31746;SDS011;18319;48.974;8.462;2022-10-16T05:57:21;1.00;;;0.63;;
31746;SDS011;18319;48.974;8.462;2022-10-16T05:59:48;1.38;;;0.50;;
31746;SDS011;18319;48.974;8.462;2022-10-16T06:02:15;0.85;;;0.60;;
31746;SDS011;18319;48.974;8.462;2022-10-16T06:04:42;1.13;;;1.13;;
31746;SDS011;18319;48.974;8.462;2022-10-16T06:07:08;1.77;;;0.90;;
31746;SDS011;18319;48.974;8.462;2022-10-16T06:09:35;1.77;;;0.70;;
31746;SDS011;18319;48.974;8.462;2022-10-16T06:12:02;0.40;;;0.40;;
31746;SDS011;18319;48.974;8.462;2022-10-16T06:14:31;1.30;;;0.63;;
31746;SDS011;18319;48.974;8.462;2022-10-16T06:16:58;2.40;;;0.60;;
31746;SDS011;18319;48.974;8.462;2022-10-16T06:19:25;0.95;;;0.73;;
31746;SDS011;18319;48.974;8.462;2022-10-16T06:21:51;1.33;;;0.60;;
31746;SDS011;18319;48.974;8.462;2022-10-16T06:24:18;1.17;;;0.65;;
31746;SDS011;18319;48.974;8.462;2022-10-16T06:26:45;0.60;;;0.60;;
31746;SDS011;18319;48.974;8.462;2022-10-16T06:29:12;0.60;;;0.57;;
31746;SDS011;18319;48.974;8.462;2022-10-16T06:31:40;1.30;;;0.70;;
31746;SDS011;18319;48.974;8.462;2022-10-16T06:34:08;1.15;;;0.70;;
31746;SDS011;18319;48.974;8.462;2022-10-16T06:36:36;1.50;;;0.70;;
31746;SDS011;18319;48.974;8.462;2022-10-16T06:39:03;0.77;;;0.77;;
31746;SDS011;18319;48.974;8.462;2022-10-16T06:41:32;0.70;;;0.70;;
31746;SDS011;18319;48.974;8.462;2022-10-16T06:43:59;0.95;;;0.50;;
31746;SDS011;18319;48.974;8.462;2022-10-16T06:46:26;0.85;;;0.60;;
31746;SDS011;18319;48.974;8.462;2022-10-16T06:48:54;1.20;;;0.55;;
31746;SDS011;18319;48.974;8.462;2022-10-16T06:51:21;1.33;;;1.08;;
31746;SDS011;18319;48.974;8.462;2022-10-16T06:53:50;1.15;;;0.80;;
31746;SDS011;18319;48.974;8.462;2022-10-16T06:56:18;1.02;;;1.00;;
31746;SDS011;18319;48.974;8.462;2022-10-16T06:58:46;1.90;;;0.90;;
31746;SDS011;18319;48.974;8.462;2022-10-16T07:01:14;0.85;;;0.85;;
31746;SDS011;18319;48.974;8.462;2022-10-16T07:03:42;1.50;;;0.55;;
31746;SDS011;18319;48.974;8.462;2022-10-16T07:06:12;0.98;;;0.70;;
31746;SDS011;18319;48.974;8.462;2022-10-16T07:08:41;2.08;;;0.80;;
31746;SDS011;18319;48.974;8.462;2022-10-16T07:11:10;1.52;;;0.73;;
31746;SDS011;18319;48.974;8.462;2022-10-16T07:13:39;4.95;;;1.25;;
31746;SDS011;18319;48.974;8.462;2022-10-16T07:16:07;2.95;;;0.80;;
31746;SDS011;18319;48.974;8.462;2022-10-16T07:18:35;2.10;;;0.68;;
31746;SDS011;18319;48.974;8.462;2022-10-16T07:21:04;1.73;;;1.30;;
31746;SDS011;18319;48.974;8.462;2022-10-16T07:23:33;1.30;;;1.00;;
31746;SDS011;18319;48.974;8.462;2022-10-16T07:26:00;1.15;;;0.82;;
31746;SDS011;18319;48.974;8.462;2022-10-16T07:28:27;1.73;;;0.93;;
31746;SDS011;18319;48.974;8.462;2022-10-16T07:30:54;2.25;;;0.90;;
31746;SDS011;18319;48.974;8.462;2022-10-16T07:33:21;1.10;;;1.10;;
31746;SDS011;18319;48.974;8.462;2022-10-16T07:35:48;1.42;;;0.98;;
31746;SDS011;18319;48.974;8.462;2022-10-16T07:38:16;1.30;;;0.95;;
31746;SDS011;18319;48.974;8.462;2022-10-16T07:40:44;3.25;;;1.00;;
31746;SDS011;18319;48.974;8.462;2022-10-16T07:43:11;4.20;;;1.20;;
31746;SDS011;18319;48.974;8.462;2022-10-16T07:45:38;2.78;;;0.80;;
31746;SDS011;18319;48.974;8.462;2022-10-16T07:48:13;2.85;;;1.55;;
31746;SDS011;18319;48.974;8.462;2022-10-16T07:50:39;1.80;;;0.82;;
31746;SDS011;18319;48.974;8.462;2022-10-16T07:53:06;1.13;;;0.45;;
31746;SDS011;18319;48.974;8.462;2022-10-16T07:55:33;3.25;;;0.88;;
31746;SDS011;18319;48.974;8.462;2022-10-16T07:58:02;1.35;;;0.82;;
31746;SDS011;18319;48.974;8.462;2022-10-16T08:00:29;0.77;;;0.68;;
31746;SDS011;18319;48.974;8.462;2022-10-16T08:02:56;1.38;;;0.60;;
31746;SDS011;18319;48.974;8.462;2022-10-16T08:05:25;0.98;;;0.90;;
31746;SDS011;18319;48.974;8.462;2022-10-16T08:07:52;0.63;;;0.60;;
31746;SDS011;18319;48.974;8.462;2022-10-16T08:10:20;0.93;;;0.82;;
31746;SDS011;18319;48.974;8.462;2022-10-16T08:12:48;2.35;;;0.77;;
31746;SDS011;18319;48.974;8.462;2022-10-16T08:15:16;3.53;;;0.80;;
31746;SDS011;18319;48.974;8.462;2022-10-16T08:17:43;1.65;;;0.80;;
31746;SDS011;18319;48.974;8.462;2022-10-16T08:20:11;4.75;;;1.00;;
31746;SDS011;18319;48.974;8.462;2022-10-16T08:22:37;1.65;;;0.85;;
31746;SDS011;18319;48.974;8.462;2022-10-16T08:25:05;1.15;;;0.93;;
31746;SDS011;18319;48.974;8.462;2022-10-16T08:27:32;1.95;;;0.88;;
31746;SDS011;18319;48.974;8.462;2022-10-16T08:29:59;4.20;;;1.13;;
31746;SDS011;18319;48.974;8.462;2022-10-16T08:32:27;9.88;;;4.78;;
31746;SDS011;18319;48.974;8.462;2022-10-16T08:34:54;8.25;;;5.47;;
31746;SDS011;18319;48.974;8.462;2022-10-16T08:37:20;4.70;;;4.00;;
31746;SDS011;18319;48.974;8.462;2022-10-16T08:39:47;6.18;;;3.47;;
31746;SDS011;18319;48.974;8.462;2022-10-16T08:42:16;3.08;;;1.98;;
31746;SDS011;18319;48.974;8.462;2022-10-16T08:44:58;3.95;;;1.40;;
31746;SDS011;18319;48.974;8.462;2022-10-16T08:47:42;2.13;;;1.00;;
31746;SDS011;18319;48.974;8.462;2022-10-16T08:50:17;4.75;;;1.58;;
31746;SDS011;18319;48.974;8.462;2022-10-16T08:52:49;3.45;;;1.70;;
31746;SDS011;18319;48.974;8.462;2022-10-16T08:55:17;4.20;;;1.30;;
31746;SDS011;18319;48.974;8.462;2022-10-16T08:57:54;4.57;;;1.40;;
31746;SDS011;18319;48.974;8.462;2022-10-16T09:00:21;3.17;;;0.98;;
31746;SDS011;18319;48.974;8.462;2022-10-16T09:02:51;3.25;;;0.70;;
31746;SDS011;18319;48.974;8.462;2022-10-16T09:05:26;3.45;;;0.90;;
31746;SDS011;18319;48.974;8.462;2022-10-16T09:08:19;7.05;;;1.08;;
31746;SDS011;18319;48.974;8.462;2022-10-16T09:10:53;4.78;;;1.20;;
31746;SDS011;18319;48.974;8.462;2022-10-16T09:13:26;6.50;;;1.70;;
31746;SDS011;18319;48.974;8.462;2022-10-16T09:15:59;5.00;;;1.20;;
31746;SDS011;18319;48.974;8.462;2022-10-16T09:18:37;4.22;;;1.40;;
31746;SDS011;18319;48.974;8.462;2022-10-16T09:21:13;12.30;;;1.42;;
31746;SDS011;18319;48.974;8.462;2022-10-16T09:23:44;6.22;;;2.30;;
31746;SDS011;18319;48.974;8.462;2022-10-16T09:26:12;2.45;;;0.82;;
31746;SDS011;18319;48.974;8.462;2022-10-16T09:28:40;3.10;;;0.98;;
31746;SDS011;18319;48.974;8.462;2022-10-16T09:31:09;4.35;;;1.20;;
31746;SDS011;18319;48.974;8.462;2022-10-16T09:33:42;2.85;;;1.00;;
31746;SDS011;18319;48.974;8.462;2022-10-16T09:36:11;3.42;;;1.30;;
31746;SDS011;18319;48.974;8.462;2022-10-16T09:38:40;6.75;;;0.95;;
31746;SDS011;18319;48.974;8.462;2022-10-16T09:41:12;4.20;;;1.10;;
31746;SDS011;18319;48.974;8.462;2022-10-16T09:43:46;6.05;;;1.00;;
31746;SDS011;18319;48.974;8.462;2022-10-16T09:46:21;7.35;;;1.40;;
31746;SDS011;18319;48.974;8.462;2022-10-16T09:48:53;1.58;;;0.95;;
31746;SDS011;18319;48.974;8.462;2022-10-16T09:51:23;1.50;;;1.20;;
31746;SDS011;18319;48.974;8.462;2022-10-16T09:53:54;4.50;;;1.05;;
31746;SDS011;18319;48.974;8.462;2022-10-16T09:56:22;2.60;;;0.93;;
31746;SDS011;18319;48.974;8.462;2022-10-16T09:58:51;9.00;;;1.08;;
31746;SDS011;18319;48.974;8.462;2022-10-16T10:01:18;3.42;;;1.23;;
31746;SDS011;18319;48.974;8.462;2022-10-16T10:03:45;5.15;;;1.05;;
31746;SDS011;18319;48.974;8.462;2022-10-16T10:06:17;5.00;;;1.05;;
31746;SDS011;18319;48.974;8.462;2022-10-16T10:08:55;2.65;;;1.00;;
31746;SDS011;18319;48.974;8.462;2022-10-16T10:11:36;3.08;;;1.15;;
31746;SDS011;18319;48.974;8.462;2022-10-16T10:14:21;5.15;;;1.08;;
31746;SDS011;18319;48.974;8.462;2022-10-16T10:17:01;1.83;;;0.93;;
31746;SDS011;18319;48.974;8.462;2022-10-16T10:19:39;2.88;;;1.17;;
31746;SDS011;18319;48.974;8.462;2022-10-16T10:22:23;1.75;;;1.23;;
31746;SDS011;18319;48.974;8.462;2022-10-16T10:24:56;0.82;;;0.82;;
31746;SDS011;18319;48.974;8.462;2022-10-16T10:27:28;4.10;;;1.73;;
31746;SDS011;18319;48.974;8.462;2022-10-16T10:30:05;4.85;;;1.33;;
31746;SDS011;18319;48.974;8.462;2022-10-16T10:32:43;1.92;;;0.93;;
31746;SDS011;18319;48.974;8.462;2022-10-16T10:35:19;1.88;;;1.05;;
31746;SDS011;18319;48.974;8.462;2022-10-16T10:37:58;2.42;;;1.00;;
31746;SDS011;18319;48.974;8.462;2022-10-16T10:40:38;4.15;;;1.00;;
31746;SDS011;18319;48.974;8.462;2022-10-16T10:43:13;1.58;;;1.02;;
31746;SDS011;18319;48.974;8.462;2022-10-16T10:45:54;1.42;;;1.00;;
31746;SDS011;18319;48.974;8.462;2022-10-16T10:48:40;3.60;;;0.90;;
31746;SDS011;18319;48.974;8.462;2022-10-16T10:51:19;1.55;;;1.10;;
31746;SDS011;18319;48.974;8.462;2022-10-16T10:53:51;1.00;;;0.90;;
31746;SDS011;18319;48.974;8.462;2022-10-16T10:56:36;6.05;;;0.90;;
31746;SDS011;18319;48.974;8.462;2022-10-16T11:02:04;1.40;;;0.63;;
31746;SDS011;18319;48.974;8.462;2022-10-16T11:04:45;1.90;;;1.08;;
31746;SDS011;18319;48.974;8.462;2022-10-16T11:07:34;4.15;;;1.15;;
31746;SDS011;18319;48.974;8.462;2022-10-16T11:10:11;1.35;;;0.82;;
31746;SDS011;18319;48.974;8.462;2022-10-16T11:12:41;1.48;;;1.00;;
31746;SDS011;18319;48.974;8.462;2022-10-16T11:15:12;5.47;;;1.35;;
31746;SDS011;18319;48.974;8.462;2022-10-16T11:17:44;1.55;;;1.45;;
31746;SDS011;18319;48.974;8.462;2022-10-16T11:20:16;1.33;;;1.00;;
31746;SDS011;18319;48.974;8.462;2022-10-16T11:22:47;5.07;;;1.10;;
31746;SDS011;18319;48.974;8.462;2022-10-16T11:25:20;3.17;;;1.10;;
31746;SDS011;18319;48.974;8.462;2022-10-16T11:27:49;1.00;;;1.00;;
31746;SDS011;18319;48.974;8.462;2022-10-16T11:30:20;1.75;;;0.82;;
31746;SDS011;18319;48.974;8.462;2022-10-16T11:33:10;2.63;;;1.38;;
31746;SDS011;18319;48.974;8.462;2022-10-16T11:35:51;2.92;;;0.90;;
31746;SDS011;18319;48.974;8.462;2022-10-16T11:38:23;3.95;;;0.80;;
31746;SDS011;18319;48.974;8.462;2022-10-16T11:40:58;1.08;;;1.00;;
31746;SDS011;18319;48.974;8.462;2022-10-16T11:43:31;1.70;;;0.98;;
31746;SDS011;18319;48.974;8.462;2022-10-16T11:46:04;3.50;;;0.77;;
31746;SDS011;18319;48.974;8.462;2022-10-16T11:48:38;2.97;;;1.30;;
31746;SDS011;18319;48.974;8.462;2022-10-16T11:51:11;7.18;;;1.13;;
31746;SDS011;18319;48.974;8.462;2022-10-16T11:53:46;2.80;;;1.52;;
31746;SDS011;18319;48.974;8.462;2022-10-16T11:56:20;5.38;;;0.80;;
31746;SDS011;18319;48.974;8.462;2022-10-16T11:58:51;0.85;;;0.85;;
31746;SDS011;18319;48.974;8.462;2022-10-16T12:01:25;2.15;;;0.93;;
31746;SDS011;18319;48.974;8.462;2022-10-16T12:04:03;1.90;;;0.90;;
31746;SDS011;18319;48.974;8.462;2022-10-16T12:06:43;5.60;;;1.52;;
31746;SDS011;18319;48.974;8.462;2022-10-16T12:09:15;7.30;;;1.70;;
31746;SDS011;18319;48.974;8.462;2022-10-16T12:11:47;2.55;;;0.73;;
31746;SDS011;18319;48.974;8.462;2022-10-16T12:17:03;4.63;;;1.23;;
31746;SDS011;18319;48.974;8.462;2022-10-16T12:19:56;1.52;;;1.10;;
31746;SDS011;18319;48.974;8.462;2022-10-16T12:22:24;1.23;;;0.73;;
31746;SDS011;18319;48.974;8.462;2022-10-16T12:24:54;1.08;;;0.90;;
31746;SDS011;18319;48.974;8.462;2022-10-16T12:27:24;2.13;;;1.10;;
31746;SDS011;18319;48.974;8.462;2022-10-16T12:29:55;2.72;;;1.30;;
31746;SDS011;18319;48.974;8.462;2022-10-16T12:32:24;3.95;;;0.85;;
31746;SDS011;18319;48.974;8.462;2022-10-16T12:34:55;2.70;;;1.13;;
31746;SDS011;18319;48.974;8.462;2022-10-16T12:37:23;0.90;;;0.90;;
31746;SDS011;18319;48.974;8.462;2022-10-16T12:39:53;1.20;;;0.98;;
31746;SDS011;18319;48.974;8.462;2022-10-16T12:42:30;1.63;;;0.80;;
31746;SDS011;18319;48.974;8.462;2022-10-16T12:44:59;2.60;;;0.93;;
31746;SDS011;18319;48.974;8.462;2022-10-16T12:47:35;4.63;;;1.10;;
31746;SDS011;18319;48.974;8.462;2022-10-16T12:50:23;4.75;;;1.45;;
31746;SDS011;18319;48.974;8.462;2022-10-16T12:52:56;1.33;;;0.90;;
31746;SDS011;18319;48.974;8.462;2022-10-16T12:55:23;1.95;;;0.75;;
31746;SDS011;18319;48.974;8.462;2022-10-16T12:58:09;1.63;;;0.85;;
31746;SDS011;18319;48.974;8.462;2022-10-16T13:00:49;1.48;;;1.00;;
31746;SDS011;18319;48.974;8.462;2022-10-16T13:03:27;3.10;;;0.90;;
31746;SDS011;18319;48.974;8.462;2022-10-16T13:06:15;2.08;;;1.30;;
31746;SDS011;18319;48.974;8.462;2022-10-16T13:09:02;0.73;;;0.63;;
31746;SDS011;18319;48.974;8.462;2022-10-16T13:11:45;2.47;;;1.20;;
31746;SDS011;18319;48.974;8.462;2022-10-16T13:14:42;3.45;;;1.55;;
31746;SDS011;18319;48.974;8.462;2022-10-16T13:17:31;1.55;;;1.17;;
31746;SDS011;18319;48.974;8.462;2022-10-16T13:20:06;1.73;;;1.20;;
31746;SDS011;18319;48.974;8.462;2022-10-16T13:22:43;4.55;;;1.58;;
31746;SDS011;18319;48.974;8.462;2022-10-16T13:25:19;0.80;;;0.80;;
31746;SDS011;18319;48.974;8.462;2022-10-16T13:27:54;1.20;;;0.82;;
31746;SDS011;18319;48.974;8.462;2022-10-16T13:30:25;0.85;;;0.85;;
31746;SDS011;18319;48.974;8.462;2022-10-16T13:32:58;1.20;;;1.10;;
31746;SDS011;18319;48.974;8.462;2022-10-16T13:35:27;5.72;;;1.00;;
31746;SDS011;18319;48.974;8.462;2022-10-16T13:38:03;7.18;;;1.35;;
31746;SDS011;18319;48.974;8.462;2022-10-16T13:40:31;1.48;;;1.20;;
31746;SDS011;18319;48.974;8.462;2022-10-16T13:42:59;1.38;;;1.13;;
31746;SDS011;18319;48.974;8.462;2022-10-16T13:45:28;1.98;;;1.08;;
31746;SDS011;18319;48.974;8.462;2022-10-16T13:48:01;2.05;;;0.80;;
31746;SDS011;18319;48.974;8.462;2022-10-16T13:50:28;6.40;;;1.27;;
31746;SDS011;18319;48.974;8.462;2022-10-16T13:53:02;4.07;;;1.35;;
31746;SDS011;18319;48.974;8.462;2022-10-16T13:55:30;3.67;;;1.38;;
31746;SDS011;18319;48.974;8.462;2022-10-16T13:58:04;1.80;;;1.10;;
31746;SDS011;18319;48.974;8.462;2022-10-16T14:00:34;1.08;;;1.08;;
31746;SDS011;18319;48.974;8.462;2022-10-16T14:03:01;2.17;;;1.17;;
31746;SDS011;18319;48.974;8.462;2022-10-16T14:05:30;2.67;;;1.02;;
31746;SDS011;18319;48.974;8.462;2022-10-16T14:07:58;5.57;;;4.72;;
31746;SDS011;18319;48.974;8.462;2022-10-16T14:10:26;5.07;;;4.10;;
31746;SDS011;18319;48.974;8.462;2022-10-16T14:12:56;2.95;;;2.58;;
31746;SDS011;18319;48.974;8.462;2022-10-16T14:15:24;3.55;;;2.05;;
31746;SDS011;18319;48.974;8.462;2022-10-16T14:17:52;2.17;;;2.05;;
31746;SDS011;18319;48.974;8.462;2022-10-16T14:20:20;4.18;;;3.45;;
31746;SDS011;18319;48.974;8.462;2022-10-16T14:22:57;2.72;;;1.50;;
31746;SDS011;18319;48.974;8.462;2022-10-16T14:25:26;1.58;;;1.40;;
31746;SDS011;18319;48.974;8.462;2022-10-16T14:27:58;2.15;;;1.15;;
31746;SDS011;18319;48.974;8.462;2022-10-16T14:30:27;2.95;;;1.33;;
31746;SDS011;18319;48.974;8.462;2022-10-16T14:32:57;2.55;;;1.10;;
31746;SDS011;18319;48.974;8.462;2022-10-16T14:35:25;1.92;;;1.52;;
31746;SDS011;18319;48.974;8.462;2022-10-16T14:37:54;3.10;;;1.33;;
31746;SDS011;18319;48.974;8.462;2022-10-16T14:40:23;1.65;;;1.10;;
31746;SDS011;18319;48.974;8.462;2022-10-16T14:42:52;0.90;;;0.90;;
31746;SDS011;18319;48.974;8.462;2022-10-16T14:45:20;1.95;;;1.05;;
31746;SDS011;18319;48.974;8.462;2022-10-16T14:47:49;4.60;;;1.13;;
31746;SDS011;18319;48.974;8.462;2022-10-16T14:50:19;2.65;;;1.10;;
31746;SDS011;18319;48.974;8.462;2022-10-16T14:52:46;1.60;;;0.80;;
31746;SDS011;18319;48.974;8.462;2022-10-16T14:55:13;3.72;;;1.35;;
31746;SDS011;18319;48.974;8.462;2022-10-16T14:57:41;3.25;;;2.17;;
31746;SDS011;18319;48.974;8.462;2022-10-16T15:00:10;1.92;;;1.17;;
31746;SDS011;18319;48.974;8.462;2022-10-16T15:02:41;3.40;;;2.42;;
31746;SDS011;18319;48.974;8.462;2022-10-16T15:05:13;3.45;;;3.15;;
31746;SDS011;18319;48.974;8.462;2022-10-16T15:07:43;2.88;;;2.65;;
31746;SDS011;18319;48.974;8.462;2022-10-16T15:10:10;5.72;;;1.85;;
31746;SDS011;18319;48.974;8.462;2022-10-16T15:12:37;4.32;;;2.20;;
31746;SDS011;18319;48.974;8.462;2022-10-16T15:15:21;5.53;;;1.52;;